createdAt,value
2018-11-23T00:00:26.366Z,101844.70
2018-11-23T00:02:55.636Z,101840.67
2018-11-23T00:05:24.228Z,101846.52
2018-11-23T00:07:53.406Z,101837.94
2018-11-23T00:10:23.248Z,101836.66
2018-11-23T00:12:51.796Z,101833.12
2018-11-23T00:15:21.443Z,101838.53
2018-11-23T00:17:49.971Z,101838.17
2018-11-23T00:20:19.896Z,101844.28
2018-11-23T00:22:48.597Z,101842.44
2018-11-23T00:25:18.495Z,101842.94
2018-11-23T00:27:47.023Z,101848.89
2018-11-23T00:30:19.564Z,101840.27
2018-11-23T00:32:48.780Z,101845.92
2018-11-23T00:35:19.076Z,101843.23
2018-11-23T00:37:48.223Z,101842.67
2018-11-23T00:40:22.112Z,101840.27
2018-11-23T00:42:51.063Z,101846.75
2018-11-23T00:45:19.629Z,101846.78
2018-11-23T00:47:48.795Z,101846.75
2018-11-23T00:50:18.545Z,101844.88
2018-11-23T00:52:47.436Z,101853.59
2018-11-23T00:55:17.311Z,101854.73
2018-11-23T00:57:45.799Z,101860.89
2018-11-23T01:00:18.202Z,101857.47
2018-11-23T01:02:46.970Z,101863.09
2018-11-23T01:05:16.946Z,101869.55
2018-11-23T01:07:46.046Z,101867.95
2018-11-23T01:10:16.125Z,101865.51
2018-11-23T01:12:46.076Z,101865.21
2018-11-23T01:15:14.713Z,101860.59
2018-11-23T01:17:43.548Z,101862.23
2018-11-23T01:20:15.052Z,101864.11
2018-11-23T01:22:43.680Z,101868.39
2018-11-23T01:25:13.498Z,101870.33
2018-11-23T01:27:43.083Z,101874.91
2018-11-23T01:30:20.219Z,101873.87
2018-11-23T01:32:49.006Z,101873.13
2018-11-23T01:35:17.580Z,101867.17
2018-11-23T01:37:46.094Z,101870.45
2018-11-23T01:40:17.387Z,101874.70
2018-11-23T01:42:46.315Z,101866.94
2018-11-23T01:45:15.411Z,101874.17
2018-11-23T01:47:44.244Z,101865.03
2018-11-23T01:50:16.367Z,101866.94
2018-11-23T01:52:46.185Z,101862.91
2018-11-23T01:55:15.315Z,101858.15
2018-11-23T01:57:44.216Z,101860.02
2018-11-23T02:00:14.866Z,101862.41
2018-11-23T02:02:43.703Z,101859.73
2018-11-23T02:05:12.374Z,101857.29
2018-11-23T02:07:41.005Z,101857.85
2018-11-23T02:10:10.797Z,101855.17
2018-11-23T02:12:39.350Z,101850.65
2018-11-23T02:15:10.881Z,101853.33
2018-11-23T02:17:39.447Z,101855.17
2018-11-23T02:20:09.792Z,101858.69
2018-11-23T02:22:38.315Z,101858.71
2018-11-23T02:25:07.115Z,101854.94
2018-11-23T02:27:35.803Z,101859.78
2018-11-23T02:30:05.310Z,101854.69
2018-11-23T02:32:33.862Z,101853.35
2018-11-23T02:35:02.396Z,101851.80
2018-11-23T02:37:30.964Z,101852.91
2018-11-23T02:39:59.566Z,101856.39
2018-11-23T02:42:28.055Z,101845.67
2018-11-23T02:44:56.645Z,101846.45
2018-11-23T02:47:25.155Z,101848.34
2018-11-23T02:49:53.719Z,101839.27
2018-11-23T02:52:22.357Z,101840.36
2018-11-23T02:54:50.886Z,101837.92
2018-11-23T02:57:19.497Z,101837.13
2018-11-23T02:59:48.011Z,101824.71
2018-11-23T03:02:16.544Z,101832.75
2018-11-23T03:04:45.172Z,101831.41
2018-11-23T03:07:13.684Z,101824.71
2018-11-23T03:09:42.592Z,101826.34
2018-11-23T03:12:11.229Z,101828.14
2018-11-23T03:14:39.823Z,101828.43
2018-11-23T03:17:08.307Z,101820.39
2018-11-23T03:19:37.176Z,101819.34
2018-11-23T03:22:05.884Z,101820.69
2018-11-23T03:24:34.424Z,101817.71
2018-11-23T03:27:03.084Z,101813.99
2018-11-23T03:29:31.796Z,101810.27
2018-11-23T03:32:00.349Z,101810.27
2018-11-23T03:34:28.905Z,101810.77
2018-11-23T03:36:57.435Z,101812.66
2018-11-23T03:39:25.950Z,101817.77
2018-11-23T03:41:54.475Z,101816.43
2018-11-23T03:44:22.954Z,101817.47
2018-11-23T03:46:51.513Z,101820.16
2018-11-23T03:49:20.140Z,101817.47
2018-11-23T03:51:48.684Z,101808.34
2018-11-23T03:54:17.323Z,101808.52
2018-11-23T03:56:45.833Z,101809.27
2018-11-23T03:59:14.428Z,101807.90
2018-11-23T04:01:42.961Z,101794.95
2018-11-23T04:04:11.485Z,101796.18
2018-11-23T04:06:40.179Z,101800.98
2018-11-23T04:09:09.361Z,101806.58
2018-11-23T04:11:38.246Z,101806.78
2018-11-23T04:14:06.812Z,101809.19
2018-11-23T04:16:35.340Z,101818.84
2018-11-23T04:19:03.869Z,101810.77
2018-11-23T04:21:32.533Z,101807.44
2018-11-23T04:24:01.104Z,101802.33
2018-11-23T04:26:29.652Z,101802.50
2018-11-23T04:28:58.258Z,101801.11
2018-11-23T04:31:26.898Z,101797.59
2018-11-23T04:33:55.417Z,101803.48
2018-11-23T04:36:23.990Z,101807.74
2018-11-23T04:38:52.539Z,101811.45
2018-11-23T04:41:21.055Z,101805.54
2018-11-23T04:43:49.840Z,101795.57
2018-11-23T04:46:18.400Z,101793.37
2018-11-23T04:48:47.164Z,101798.37
2018-11-23T04:51:15.715Z,101795.06
2018-11-23T04:53:44.306Z,101794.17
2018-11-23T04:56:12.953Z,101789.83
2018-11-23T04:58:41.476Z,101789.97
2018-11-23T05:01:10.014Z,101789.94
2018-11-23T05:03:38.733Z,101793.06
2018-11-23T05:06:07.503Z,101788.92
2018-11-23T05:08:36.015Z,101791.77
2018-11-23T05:11:04.595Z,101790.61
2018-11-23T05:13:33.164Z,101795.39
2018-11-23T05:16:01.739Z,101797.41
2018-11-23T05:18:30.395Z,101805.06
2018-11-23T05:20:59.018Z,101801.52
2018-11-23T05:23:27.610Z,101801.16
2018-11-23T05:25:56.210Z,101801.06
2018-11-23T05:28:24.783Z,101806.04
2018-11-23T05:30:53.442Z,101802.13
2018-11-23T05:33:22.036Z,101806.01
2018-11-23T05:35:51.012Z,101800.83
2018-11-23T05:38:19.544Z,101796.14
2018-11-23T05:40:48.055Z,101795.80
2018-11-23T05:43:16.711Z,101798.64
2018-11-23T05:45:45.242Z,101796.94
2018-11-23T05:48:13.740Z,101790.34
2018-11-23T05:50:42.413Z,101789.17
2018-11-23T05:53:11.025Z,101783.22
2018-11-23T05:55:39.543Z,101786.73
2018-11-23T05:58:08.057Z,101787.39
2018-11-23T06:00:36.799Z,101782.21
2018-11-23T06:03:05.501Z,101787.48
2018-11-23T06:05:34.050Z,101783.70
2018-11-23T06:08:02.716Z,101775.85
2018-11-23T06:10:31.337Z,101777.62
2018-11-23T06:12:59.852Z,101781.78
2018-11-23T06:15:28.422Z,101787.36
2018-11-23T06:17:57.033Z,101786.78
2018-11-23T06:20:26.512Z,101781.37
2018-11-23T06:22:55.940Z,101777.79
2018-11-23T06:25:40.582Z,101782.25
2018-11-23T06:28:09.166Z,101780.34
2018-11-23T06:30:37.754Z,101786.95
2018-11-23T06:33:20.461Z,101785.55
2018-11-23T06:35:49.016Z,101783.30
2018-11-23T06:38:18.066Z,101782.11
2018-11-23T06:40:46.616Z,101786.34
2018-11-23T06:43:15.196Z,101780.44
2018-11-23T06:45:44.578Z,101787.84
2018-11-23T06:48:13.149Z,101776.28
2018-11-23T06:50:41.711Z,101774.94
2018-11-23T06:53:10.339Z,101782.95
2018-11-23T06:55:38.888Z,101784.29
2018-11-23T06:58:07.595Z,101787.99
2018-11-23T07:00:36.101Z,101784.52
2018-11-23T07:03:04.672Z,101783.19
2018-11-23T07:05:33.235Z,101781.55
2018-11-23T07:08:02.643Z,101772.77
2018-11-23T07:10:31.236Z,101777.61
2018-11-23T07:12:59.789Z,101776.70
2018-11-23T07:15:28.356Z,101767.36
2018-11-23T07:17:57.217Z,101771.16
2018-11-23T07:20:25.755Z,101775.17
2018-11-23T07:22:54.606Z,101771.89
2018-11-23T07:25:23.118Z,101768.77
2018-11-23T07:27:51.757Z,101771.44
2018-11-23T07:30:21.814Z,101775.75
2018-11-23T07:32:50.372Z,101771.20
2018-11-23T07:35:18.911Z,101769.88
2018-11-23T07:37:47.499Z,101777.95
2018-11-23T07:40:30.852Z,101776.85
2018-11-23T07:42:59.353Z,101779.02
2018-11-23T07:45:28.016Z,101778.19
2018-11-23T07:47:56.564Z,101779.52
2018-11-23T07:50:25.051Z,101779.02
2018-11-23T07:52:53.726Z,101778.27
2018-11-23T07:55:22.282Z,101779.30
2018-11-23T07:57:50.893Z,101783.38
2018-11-23T08:00:20.784Z,101778.03
2018-11-23T08:02:49.745Z,101779.91
2018-11-23T08:05:19.104Z,101780.70
2018-11-23T08:07:47.673Z,101780.85
2018-11-23T08:10:15.652Z,101786.27
2018-11-23T08:12:45.408Z,101788.94
2018-11-23T08:15:17.194Z,101785.01
2018-11-23T08:17:46.400Z,101782.34
2018-11-23T08:20:16.476Z,101774.09
2018-11-23T08:22:45.098Z,101780.84
2018-11-23T08:25:14.817Z,101790.50
2018-11-23T08:27:44.180Z,101789.01
2018-11-23T08:30:20.403Z,101791.75
2018-11-23T08:32:49.050Z,101791.52
2018-11-23T08:35:17.643Z,101789.73
2018-11-23T08:37:46.262Z,101795.91
2018-11-23T08:40:18.674Z,101789.53
2018-11-23T08:42:48.210Z,101788.53
2018-11-23T08:45:18.184Z,101792.11
2018-11-23T08:47:46.703Z,101799.67
2018-11-23T08:50:18.122Z,101786.88
2018-11-23T08:52:46.679Z,101793.63
2018-11-23T08:55:16.190Z,101798.84
2018-11-23T08:57:44.736Z,101800.76
2018-11-23T09:00:18.416Z,101804.91
2018-11-23T09:02:48.868Z,101799.64
2018-11-23T09:05:17.913Z,101798.67
2018-11-23T09:07:47.406Z,101806.30
2018-11-23T09:10:18.055Z,101805.53
2018-11-23T09:12:49.382Z,101805.66
2018-11-23T09:15:17.943Z,101801.80
2018-11-23T09:17:46.706Z,101801.06
2018-11-23T09:20:16.043Z,101807.28
2018-11-23T09:22:44.597Z,101796.95
2018-11-23T09:25:16.545Z,101786.08
2018-11-23T09:27:45.211Z,101782.41
2018-11-23T09:30:16.399Z,101780.39
2018-11-23T09:32:46.120Z,101777.02
2018-11-23T09:35:14.656Z,101774.47
2018-11-23T09:37:43.437Z,101787.67
2018-11-23T09:40:14.509Z,101786.47
2018-11-23T09:42:43.760Z,101791.64
2018-11-23T09:45:14.687Z,101794.20
2018-11-23T09:47:44.078Z,101797.08
2018-11-23T09:50:14.082Z,101790.98
2018-11-23T09:52:42.924Z,101788.88
2018-11-23T09:55:12.034Z,101786.85
2018-11-23T09:57:40.991Z,101783.82
2018-11-23T10:00:14.031Z,101786.02
2018-11-23T10:02:42.902Z,101787.53
2018-11-23T10:05:12.258Z,101787.18
2018-11-23T10:07:41.353Z,101785.45
2018-11-23T10:10:11.416Z,101784.49
2018-11-23T10:12:40.512Z,101786.30
2018-11-23T10:15:10.519Z,101788.84
2018-11-23T10:17:39.320Z,101779.05
2018-11-23T10:20:10.229Z,101772.51
2018-11-23T10:22:38.796Z,101774.52
2018-11-23T10:25:08.705Z,101773.52
2018-11-23T10:27:37.360Z,101763.84
2018-11-23T10:30:06.572Z,101762.37
2018-11-23T10:32:35.138Z,101752.23
2018-11-23T10:35:03.815Z,101747.44
2018-11-23T10:37:32.405Z,101755.52
2018-11-23T10:40:00.971Z,101756.27
2018-11-23T10:42:29.504Z,101749.22
2018-11-23T10:44:57.994Z,101744.20
2018-11-23T10:47:26.709Z,101734.33
2018-11-23T10:49:55.231Z,101729.06
2018-11-23T10:52:23.809Z,101729.37
2018-11-23T10:54:52.306Z,101727.61
2018-11-23T10:57:20.840Z,101718.28
2018-11-23T10:59:49.403Z,101718.58
2018-11-23T11:02:23.005Z,101720.02
2018-11-23T11:04:52.817Z,101716.38
2018-11-23T11:07:21.339Z,101719.66
2018-11-23T11:09:49.885Z,101721.09
2018-11-23T11:12:18.576Z,101727.88
2018-11-23T11:14:47.121Z,101724.45
2018-11-23T11:17:15.621Z,101722.94
2018-11-23T11:19:44.177Z,101729.11
2018-11-23T11:22:12.716Z,101716.02
2018-11-23T11:24:41.292Z,101716.87
2018-11-23T11:27:09.819Z,101718.05
2018-11-23T11:29:38.385Z,101709.27
2018-11-23T11:32:06.996Z,101710.95
2018-11-23T11:34:35.627Z,101707.25
2018-11-23T11:37:04.129Z,101701.34
2018-11-23T11:39:32.707Z,101697.31
2018-11-23T11:42:01.325Z,101697.14
2018-11-23T11:44:29.844Z,101690.97
2018-11-23T11:46:58.457Z,101691.52
2018-11-23T11:49:27.033Z,101690.72
2018-11-23T11:51:55.593Z,101682.13
2018-11-23T11:54:24.300Z,101687.27
2018-11-23T11:56:52.827Z,101674.11
2018-11-23T11:59:21.694Z,101679.59
2018-11-23T12:01:50.302Z,101677.48
2018-11-23T12:04:18.862Z,101678.06
2018-11-23T12:06:47.403Z,101678.39
2018-11-23T12:09:15.955Z,101673.59
2018-11-23T12:11:44.496Z,101673.89
2018-11-23T12:14:13.043Z,101678.24
2018-11-23T12:16:41.643Z,101670.73
2018-11-23T12:19:10.158Z,101673.19
2018-11-23T12:21:38.717Z,101670.76
2018-11-23T12:24:07.326Z,101664.63
2018-11-23T12:26:35.842Z,101661.42
2018-11-23T12:29:04.513Z,101658.26
2018-11-23T12:31:33.107Z,101659.09
2018-11-23T12:34:01.661Z,101655.16
2018-11-23T12:36:30.316Z,101652.21
2018-11-23T12:38:58.891Z,101648.47
2018-11-23T12:41:27.454Z,101644.50
2018-11-23T12:43:56.020Z,101638.03
2018-11-23T12:46:24.555Z,101640.78
2018-11-23T12:48:53.076Z,101633.77
2018-11-23T12:51:21.807Z,101632.97
2018-11-23T12:53:50.381Z,101633.30
2018-11-23T12:56:18.963Z,101622.25
2018-11-23T12:58:47.540Z,101616.94
2018-11-23T13:01:16.165Z,101608.03
2018-11-23T13:03:44.727Z,101610.75
2018-11-23T13:06:13.303Z,101611.30
2018-11-23T13:08:41.891Z,101607.63
2018-11-23T13:11:10.491Z,101601.73
2018-11-23T13:13:39.200Z,101596.07
2018-11-23T13:16:07.772Z,101594.70
2018-11-23T13:18:36.305Z,101594.19
2018-11-23T13:21:05.259Z,101594.70
2018-11-23T13:23:33.850Z,101593.41
2018-11-23T13:26:02.429Z,101589.66
2018-11-23T13:28:30.970Z,101584.28
2018-11-23T13:31:00.264Z,101584.82
2018-11-23T13:33:32.663Z,101593.48
2018-11-23T13:36:01.251Z,101583.55
2018-11-23T13:38:29.801Z,101588.16
2018-11-23T13:40:58.404Z,101593.30
2018-11-23T13:43:26.933Z,101586.55
2018-11-23T13:45:55.501Z,101586.84
2018-11-23T13:48:24.039Z,101582.55
2018-11-23T13:50:52.927Z,101585.52
2018-11-23T13:53:21.497Z,101579.08
2018-11-23T13:55:50.051Z,101585.02
2018-11-23T13:58:18.612Z,101582.62
2018-11-23T14:00:47.206Z,101584.83
2018-11-23T14:03:15.732Z,101572.96
2018-11-23T14:05:44.297Z,101583.48
2018-11-23T14:08:12.820Z,101590.77
2018-11-23T14:10:41.365Z,101586.47
2018-11-23T14:13:11.485Z,101585.65
2018-11-23T14:15:38.400Z,101583.53
2018-11-23T14:18:06.987Z,101580.29
2018-11-23T14:20:35.606Z,101582.67
2018-11-23T14:23:04.262Z,101578.34
2018-11-23T14:25:32.886Z,101569.44
2018-11-23T14:28:01.538Z,101571.88
2018-11-23T14:30:32.553Z,101572.37
2018-11-23T14:33:01.785Z,101565.60
2018-11-23T14:35:31.439Z,101565.06
2018-11-23T14:38:00.657Z,101573.65
2018-11-23T14:40:29.203Z,101568.51
2018-11-23T14:42:58.210Z,101566.34
2018-11-23T14:45:31.022Z,101564.71
2018-11-23T14:48:01.859Z,101557.70
2018-11-23T14:50:31.635Z,101564.97
2018-11-23T14:53:00.663Z,101562.77
2018-11-23T14:55:29.685Z,101563.83
2018-11-23T14:57:58.518Z,101567.30
2018-11-23T15:00:29.606Z,101570.48
2018-11-23T15:02:59.190Z,101571.31
2018-11-23T15:05:27.778Z,101572.37
2018-11-23T15:07:56.502Z,101564.02
2018-11-23T15:10:26.500Z,101566.97
2018-11-23T15:12:56.546Z,101567.97
2018-11-23T15:15:26.543Z,101570.69
2018-11-23T15:17:55.742Z,101566.09
2018-11-23T15:20:28.900Z,101572.00
2018-11-23T15:23:07.185Z,101563.38
2018-11-23T15:25:35.750Z,101557.97
2018-11-23T15:28:04.397Z,101573.53
2018-11-23T15:30:35.116Z,101570.81
2018-11-23T15:33:04.962Z,101566.23
2018-11-23T15:35:34.992Z,101566.73
2018-11-23T15:38:10.003Z,101564.52
2018-11-23T15:40:33.233Z,101544.86
2018-11-23T15:43:03.292Z,101545.63
2018-11-23T15:45:32.779Z,101539.97
2018-11-23T15:48:01.985Z,101546.92
2018-11-23T15:50:33.924Z,101549.00
2018-11-23T15:53:02.602Z,101546.28
2018-11-23T15:55:32.824Z,101550.03
2018-11-23T15:58:03.008Z,101547.31
2018-11-23T16:00:33.873Z,101540.00
2018-11-23T16:03:02.487Z,101535.08
2018-11-23T16:05:31.059Z,101536.09
2018-11-23T16:08:01.416Z,101548.16
2018-11-23T16:10:33.169Z,101547.86
2018-11-23T16:13:06.788Z,101546.71
2018-11-23T16:15:32.083Z,101541.85
2018-11-23T16:18:01.300Z,101540.73
2018-11-23T16:20:33.299Z,101534.78
2018-11-23T16:23:03.421Z,101530.44
2018-11-23T16:25:31.979Z,101530.95
2018-11-23T16:28:02.480Z,101518.83
2018-11-23T16:30:32.919Z,101529.53
2018-11-23T16:33:02.685Z,101524.39
2018-11-23T16:35:32.586Z,101526.42
2018-11-23T16:38:02.651Z,101531.72
2018-11-23T16:40:32.758Z,101528.23
2018-11-23T16:43:01.935Z,101527.40
2018-11-23T16:45:31.850Z,101520.36
2018-11-23T16:48:01.601Z,101517.90
2018-11-23T16:50:30.663Z,101523.98
2018-11-23T16:52:59.297Z,101518.04
2018-11-23T16:55:28.243Z,101513.14
2018-11-23T16:57:58.036Z,101515.75
2018-11-23T17:00:28.812Z,101513.78
2018-11-23T17:02:58.591Z,101505.74
2018-11-23T17:05:31.629Z,101514.58
2018-11-23T17:08:00.181Z,101511.86
2018-11-23T17:10:28.757Z,101518.77
2018-11-23T17:12:57.280Z,101520.83
2018-11-23T17:15:27.076Z,101518.07
2018-11-23T17:17:55.578Z,101514.34
2018-11-23T17:20:25.388Z,101512.16
2018-11-23T17:22:55.032Z,101507.77
2018-11-23T17:25:24.465Z,101515.77
2018-11-23T17:27:53.818Z,101511.70
2018-11-23T17:30:30.783Z,101510.36
2018-11-23T17:32:59.376Z,101511.70
2018-11-23T17:35:28.185Z,101519.49
2018-11-23T17:37:56.894Z,101520.80
2018-11-23T17:40:27.508Z,101518.91
2018-11-23T17:42:56.473Z,101518.91
2018-11-23T17:45:26.994Z,101515.37
2018-11-23T17:47:55.957Z,101528.08
2018-11-23T17:50:29.425Z,101526.65
2018-11-23T17:52:58.663Z,101523.17
2018-11-23T17:55:27.721Z,101524.26
2018-11-23T17:57:56.743Z,101527.74
2018-11-23T18:00:28.442Z,101532.64
2018-11-23T18:02:57.736Z,101511.95
2018-11-23T18:05:26.983Z,101513.75
2018-11-23T18:07:55.692Z,101517.06
2018-11-23T18:10:25.473Z,101517.31
2018-11-23T18:12:54.747Z,101514.63
2018-11-23T18:15:24.632Z,101512.53
2018-11-23T18:17:54.121Z,101517.06
2018-11-23T18:20:23.640Z,101510.07
2018-11-23T18:22:53.346Z,101505.63
2018-11-23T18:25:24.763Z,101498.09
2018-11-23T18:27:58.424Z,101514.22
2018-11-23T18:30:27.190Z,101510.16
2018-11-23T18:32:55.747Z,101497.30
2018-11-23T18:35:24.323Z,101498.92
2018-11-23T18:37:52.827Z,101497.50
2018-11-23T18:40:21.367Z,101494.36
2018-11-23T18:42:49.908Z,101488.49
2018-11-23T18:45:18.469Z,101482.22
2018-11-23T18:47:47.016Z,101488.96
2018-11-23T18:50:16.587Z,101487.33
2018-11-23T18:52:45.126Z,101488.96
2018-11-23T18:55:18.259Z,101492.90
2018-11-23T18:57:43.129Z,101484.59
2018-11-23T19:00:18.339Z,101484.31
2018-11-23T19:02:47.731Z,101474.14
2018-11-23T19:05:18.853Z,101476.56
2018-11-23T19:07:47.432Z,101480.37
2018-11-23T19:10:16.003Z,101472.33
2018-11-23T19:12:44.616Z,101470.70
2018-11-23T19:15:25.072Z,101474.77
2018-11-23T19:17:48.600Z,101473.42
2018-11-23T19:20:19.385Z,101467.81
2018-11-23T19:22:49.176Z,101464.33
2018-11-23T19:25:17.773Z,101463.50
2018-11-23T19:27:46.345Z,101463.54
2018-11-23T19:30:16.133Z,101445.83
2018-11-23T19:32:44.675Z,101449.09
2018-11-23T19:35:13.335Z,101447.45
2018-11-23T19:37:41.845Z,101447.74
2018-11-23T19:40:12.589Z,101447.70
2018-11-23T19:42:41.111Z,101449.63
2018-11-23T19:45:12.166Z,101450.75
2018-11-23T19:47:40.725Z,101450.72
2018-11-23T19:50:10.958Z,101454.16
2018-11-23T19:52:39.735Z,101461.73
2018-11-23T19:55:08.807Z,101460.17
2018-11-23T19:57:37.422Z,101465.55
2018-11-23T20:00:11.315Z,101457.50
2018-11-23T20:02:40.176Z,101453.73
2018-11-23T20:05:09.204Z,101453.48
2018-11-23T20:07:37.883Z,101449.78
2018-11-23T20:10:10.748Z,101447.89
2018-11-23T20:12:39.763Z,101447.89
2018-11-23T20:15:10.680Z,101436.38
2018-11-23T20:17:41.393Z,101433.91
2018-11-23T20:20:09.507Z,101420.22
2018-11-23T20:22:38.347Z,101429.60
2018-11-23T20:25:10.352Z,101425.33
2018-11-23T20:27:39.217Z,101417.80
2018-11-23T20:30:13.880Z,101422.20
2018-11-23T20:32:42.658Z,101416.01
2018-11-23T20:35:12.352Z,101421.33
2018-11-23T20:37:40.959Z,101411.62
2018-11-23T20:40:12.899Z,101419.11
2018-11-23T20:42:41.610Z,101420.45
2018-11-23T20:45:11.243Z,101423.68
2018-11-23T20:47:39.830Z,101422.30
2018-11-23T20:50:10.762Z,101414.47
2018-11-23T20:52:39.439Z,101410.45
2018-11-23T20:55:10.503Z,101402.08
2018-11-23T20:57:39.090Z,101405.80
2018-11-23T21:00:10.814Z,101401.53
2018-11-23T21:02:39.450Z,101399.98
2018-11-23T21:05:09.436Z,101398.56
2018-11-23T21:07:38.196Z,101394.80
2018-11-23T21:10:19.647Z,101392.63
2018-11-23T21:12:41.551Z,101391.03
2018-11-23T21:15:30.865Z,101399.53
2018-11-23T21:18:01.609Z,101391.79
2018-11-23T21:20:29.496Z,101391.11
2018-11-23T21:22:58.018Z,101394.30
2018-11-23T21:25:26.581Z,101391.58
2018-11-23T21:27:55.186Z,101376.84
2018-11-23T21:30:24.757Z,101374.70
2018-11-23T21:32:54.737Z,101366.42
2018-11-23T21:35:23.558Z,101364.53
2018-11-23T21:37:52.139Z,101369.64
2018-11-23T21:40:20.732Z,101375.50
2018-11-23T21:42:49.333Z,101362.11
2018-11-23T21:45:19.650Z,101359.39
2018-11-23T21:47:48.250Z,101370.69
2018-11-23T21:50:25.165Z,101371.52
2018-11-23T21:52:49.788Z,101366.67
2018-11-23T21:55:20.823Z,101370.94
2018-11-23T21:57:49.718Z,101365.58
2018-11-23T22:00:18.350Z,101367.43
2018-11-23T22:02:50.580Z,101367.17
2018-11-23T22:05:19.193Z,101367.64
2018-11-23T22:07:47.752Z,101371.87
2018-11-23T22:10:18.946Z,101355.84
2018-11-23T22:12:47.540Z,101362.53
2018-11-23T22:15:19.277Z,101366.27
2018-11-23T22:17:48.394Z,101360.36
2018-11-23T22:20:18.609Z,101364.67
2018-11-23T22:22:47.173Z,101363.41
2018-11-23T22:25:17.513Z,101360.11
2018-11-23T22:27:46.364Z,101357.64
2018-11-23T22:30:17.133Z,101348.73
2018-11-23T22:32:45.825Z,101344.20
2018-11-23T22:35:14.649Z,101343.66
2018-11-23T22:37:43.257Z,101340.19
2018-11-23T22:40:13.178Z,101333.20
2018-11-23T22:42:42.843Z,101331.06
2018-11-23T22:45:12.794Z,101327.55
2018-11-23T22:47:41.381Z,101320.27
2018-11-23T22:50:14.393Z,101326.14
2018-11-23T22:52:42.908Z,101336.30
2018-11-23T22:55:12.519Z,101326.97
2018-11-23T22:57:41.074Z,101317.06
2018-11-23T23:00:18.795Z,101310.91
2018-11-23T23:02:49.897Z,101313.30
2018-11-23T23:05:19.410Z,101310.61
2018-11-23T23:07:48.046Z,101317.31
2018-11-23T23:10:16.826Z,101317.27
2018-11-23T23:12:45.402Z,101310.07
2018-11-23T23:15:13.993Z,101307.97
2018-11-23T23:17:43.183Z,101299.14
2018-11-23T23:20:12.996Z,101301.81
2018-11-23T23:22:41.514Z,101300.70
2018-11-23T23:25:10.972Z,101298.23
2018-11-23T23:27:39.547Z,101293.95
2018-11-23T23:30:09.890Z,101293.42
2018-11-23T23:32:38.738Z,101293.17
2018-11-23T23:35:09.334Z,101284.84
2018-11-23T23:37:38.024Z,101284.26
2018-11-23T23:40:09.147Z,101274.89
2018-11-23T23:42:37.810Z,101276.52
2018-11-23T23:45:15.799Z,101273.80
2018-11-23T23:47:44.379Z,101273.80
2018-11-23T23:50:14.173Z,101275.72
2018-11-23T23:52:42.714Z,101268.48
2018-11-23T23:55:11.468Z,101262.01
2018-11-23T23:57:41.088Z,101260.13
